Terminal Aerodrome Forecast
Issued by NWS Cleveland, OH

Home | Current Version | Previous Version | Graphics & Text | Print | Product List | Glossary On
Versions: 1 2 3 4 5 6 7 8 9 10 11 12 13 14 15 16 17 18 19
000
FTUS41 KCLE 201700
TAFTOL
TAF
KTOL 201738Z 2018/2118 21010G20KT P6SM SCT035 BKN150
     FM202300 22012KT P6SM VCTS BKN035CB
      TEMPO 2100/2103 VRB15G25KT 3SM TSRA BR OVC035CB
     FM210400 22008KT P6SM OVC040
     FM210700 24010KT P6SM VCSH SCT015 OVC030
      TEMPO 2108/2112 5SM -SHRA BR SCT009 OVC015
     FM211500 27012KT P6SM BKN040=

USA.gov is the U.S. government's official web portal to all federal, state and local government web resources and services.